Time;durP1;ratioP1;P1;durP2;ratioP2;P2;SDS_P1;SDS_P2;PMS_P1;PMS_P2;Temp;Humidity;BMP_temperature;BMP_pressure;BME280_temperature;BME280_humidity;BME280_pressure;Samples;Min_cycle;Max_cycle;Signal;HPM_P1;HPM_P2
2020/12/22 00:00:13;;;;;;;4.23;3.83;;;21.80;34.80;;;;;;5002112;28;20390;-53
2020/12/22 00:02:47;;;;;;;4.85;4.38;;;21.80;34.90;;;;;;5000744;28;20405;-53
2020/12/22 00:05:13;;;;;;;4.70;4.20;;;21.80;35.00;;;;;;5001382;28;20505;-53
2020/12/22 00:07:40;;;;;;;4.80;4.30;;;21.80;35.10;;;;;;5000114;28;20444;-52
2020/12/22 00:10:07;;;;;;;4.18;3.78;;;21.80;34.90;;;;;;5000730;28;20393;-52
2020/12/22 00:12:33;;;;;;;5.43;4.38;;;21.80;35.60;;;;;;5000697;28;20398;-52
2020/12/22 00:15:00;;;;;;;4.30;3.90;;;21.70;35.00;;;;;;5002457;28;20406;-52
2020/12/22 00:17:29;;;;;;;4.27;3.80;;;21.70;35.00;;;;;;5000601;28;20586;-52
2020/12/22 00:19:54;;;;;;;5.18;3.97;;;21.70;35.00;;;;;;5000919;28;20870;-52
2020/12/22 00:22:20;;;;;;;4.30;3.80;;;21.70;35.00;;;;;;4987993;28;20469;-52
2020/12/22 00:24:45;;;;;;;4.20;3.80;;;21.70;35.00;;;;;;4987894;28;20643;-52
2020/12/22 00:27:11;;;;;;;4.05;3.67;;;21.70;35.00;;;;;;4982054;28;20409;-52
2020/12/22 00:29:37;;;;;;;4.30;3.90;;;21.60;34.90;;;;;;5001761;28;20388;-52
2020/12/22 00:32:03;;;;;;;4.10;3.70;;;21.60;34.80;;;;;;4997447;28;20459;-52
2020/12/22 00:34:29;;;;;;;4.27;3.80;;;21.60;34.80;;;;;;4975767;28;20487;-52
2020/12/22 00:36:55;;;;;;;4.63;4.00;;;21.60;34.80;;;;;;4992346;28;20394;-52
2020/12/22 00:39:20;;;;;;;4.25;3.85;;;21.60;34.80;;;;;;4992438;28;20401;-52
2020/12/22 00:41:54;;;;;;;4.18;3.72;;;21.60;34.70;;;;;;4985081;28;20412;-52
2020/12/22 00:44:20;;;;;;;4.20;3.80;;;21.60;34.80;;;;;;4999831;28;20503;-52
2020/12/22 00:46:46;;;;;;;4.45;3.47;;;21.60;34.70;;;;;;5011789;28;20885;-52
2020/12/22 00:49:12;;;;;;;4.45;3.70;;;21.60;34.70;;;;;;5010916;28;20391;-52
2020/12/22 00:51:37;;;;;;;4.10;3.70;;;21.60;34.70;;;;;;5012007;28;20393;-52
2020/12/22 00:54:03;;;;;;;4.45;3.60;;;21.60;34.70;;;;;;5012032;28;20395;-52
2020/12/22 00:56:29;;;;;;;4.28;3.55;;;21.60;34.70;;;;;;5011949;28;20719;-52
2020/12/22 00:58:54;;;;;;;3.90;3.50;;;21.60;34.70;;;;;;5010605;28;20865;-52
2020/12/22 01:01:21;;;;;;;4.20;3.60;;;21.60;34.70;;;;;;5011452;28;20389;-52
2020/12/22 01:03:46;;;;;;;3.97;3.58;;;21.60;34.60;;;;;;5011806;28;20416;-52
2020/12/22 01:06:13;;;;;;;4.17;3.33;;;21.60;34.50;;;;;;5011727;28;20485;-52
2020/12/22 01:08:40;;;;;;;3.88;3.47;;;21.60;34.60;;;;;;5010861;28;20487;-52
2020/12/22 01:11:05;;;;;;;3.97;3.57;;;21.60;34.50;;;;;;5011423;28;20392;-52
2020/12/22 01:13:31;;;;;;;4.30;3.28;;;21.60;34.50;;;;;;5011530;28;20406;-51
2020/12/22 01:15:57;;;;;;;4.10;3.43;;;21.60;34.60;;;;;;5011268;28;20943;-52
2020/12/22 01:18:22;;;;;;;3.78;3.38;;;21.60;34.50;;;;;;5011354;28;20423;-52
2020/12/22 01:20:49;;;;;;;4.05;3.40;;;21.60;34.60;;;;;;4992608;28;20861;-52
2020/12/22 01:23:14;;;;;;;3.90;3.50;;;21.50;34.50;;;;;;4991475;28;20864;-52
2020/12/22 01:25:41;;;;;;;3.67;3.33;;;21.50;34.50;;;;;;4993008;28;20427;-52
2020/12/22 01:28:07;;;;;;;4.32;2.92;;;21.60;34.50;;;;;;4991772;28;20398;-52
2020/12/22 01:30:35;;;;;;;3.80;3.40;;;21.50;34.40;;;;;;4991970;28;20843;-52
2020/12/22 01:33:00;;;;;;;3.58;2.97;;;21.50;34.40;;;;;;4991259;28;20423;-52
2020/12/22 01:35:27;;;;;;;3.38;3.05;;;21.50;34.50;;;;;;4991734;28;21208;-52
2020/12/22 01:37:52;;;;;;;3.40;3.10;;;21.50;34.40;;;;;;4991907;28;20482;-52
2020/12/22 01:40:18;;;;;;;3.28;2.90;;;21.50;34.40;;;;;;4991912;28;20497;-52
2020/12/22 01:42:44;;;;;;;4.00;3.10;;;21.50;34.40;;;;;;5010583;28;20400;-53
2020/12/22 01:45:11;;;;;;;3.10;2.80;;;21.50;34.40;;;;;;5010463;28;20912;-52
2020/12/22 01:47:44;;;;;;;3.83;3.00;;;21.50;34.40;;;;;;5011194;28;20796;-52
2020/12/22 01:50:10;;;;;;;3.30;2.80;;;21.40;34.30;;;;;;5011494;28;20413;-52
2020/12/22 01:52:36;;;;;;;3.40;3.08;;;21.40;34.30;;;;;;5011384;28;20777;-52
2020/12/22 01:55:01;;;;;;;3.00;2.70;;;21.40;34.30;;;;;;5011237;28;20940;-52
2020/12/22 01:57:27;;;;;;;3.20;2.90;;;21.50;34.40;;;;;;5011147;28;20412;-52
2020/12/22 01:59:52;;;;;;;3.23;2.87;;;21.40;34.30;;;;;;5011517;28;20401;-52
2020/12/22 02:02:18;;;;;;;3.15;2.60;;;21.50;34.40;;;;;;5011240;28;20409;-52
2020/12/22 02:04:44;;;;;;;3.00;2.70;;;21.50;34.30;;;;;;5010462;28;20973;-52
2020/12/22 02:07:12;;;;;;;3.05;2.72;;;21.50;34.30;;;;;;4990835;28;20437;-52
2020/12/22 02:09:39;;;;;;;2.60;2.40;;;21.50;34.30;;;;;;4991967;28;20763;-52
2020/12/22 02:12:05;;;;;;;3.35;2.50;;;21.50;34.30;;;;;;4995084;28;20898;-52
2020/12/22 02:14:30;;;;;;;2.83;2.50;;;21.40;34.30;;;;;;5001748;28;20458;-52
2020/12/22 02:16:56;;;;;;;2.53;2.33;;;21.40;34.10;;;;;;5014570;28;20746;-52
2020/12/22 02:19:22;;;;;;;2.73;2.43;;;21.40;34.20;;;;;;5014357;28;20404;-52
2020/12/22 02:21:48;;;;;;;2.75;2.45;;;21.40;34.20;;;;;;5014901;28;20404;-52
2020/12/22 02:24:14;;;;;;;3.13;2.40;;;21.40;34.10;;;;;;5014850;28;20424;-51
2020/12/22 02:26:40;;;;;;;2.67;2.40;;;21.40;34.20;;;;;;5014704;28;20971;-52
2020/12/22 02:29:06;;;;;;;2.80;2.30;;;21.40;34.10;;;;;;5014532;28;20396;-52
2020/12/22 02:31:31;;;;;;;2.80;2.33;;;21.40;34.10;;;;;;5009470;28;20406;-52
2020/12/22 02:33:57;;;;;;;2.60;2.20;;;21.40;34.20;;;;;;4995170;28;20394;-52
2020/12/22 02:36:23;;;;;;;2.80;2.20;;;21.40;34.10;;;;;;4995879;28;20481;-52
2020/12/22 02:38:49;;;;;;;2.40;2.20;;;21.40;34.20;;;;;;5014683;28;20407;-51
2020/12/22 02:41:15;;;;;;;2.55;2.28;;;21.40;34.20;;;;;;5013766;28;20404;-51
2020/12/22 02:43:40;;;;;;;2.75;2.10;;;21.40;34.20;;;;;;5014174;28;20740;-52
2020/12/22 02:46:07;;;;;;;2.30;2.10;;;21.40;34.20;;;;;;5014214;28;20431;-52
2020/12/22 02:48:32;;;;;;;2.42;2.00;;;21.40;34.20;;;;;;5012942;28;20423;-52
2020/12/22 02:50:58;;;;;;;2.45;1.88;;;21.40;34.30;;;;;;5014453;28;20428;-52
2020/12/22 02:53:25;;;;;;;2.47;2.10;;;21.30;34.20;;;;;;4996214;28;20471;-52
2020/12/22 02:55:50;;;;;;;2.20;1.92;;;21.30;34.20;;;;;;5014235;28;20484;-52
2020/12/22 02:58:16;;;;;;;2.30;2.10;;;21.30;34.20;;;;;;5014015;28;20396;-53
2020/12/22 03:00:42;;;;;;;2.45;2.00;;;21.30;34.20;;;;;;5014159;28;20429;-52
2020/12/22 03:03:08;;;;;;;2.15;1.80;;;21.30;34.20;;;;;;5008844;28;20465;-52
2020/12/22 03:05:34;;;;;;;2.55;1.80;;;21.30;34.20;;;;;;4994007;28;20422;-52
2020/12/22 03:07:59;;;;;;;2.30;1.90;;;21.30;34.40;;;;;;4994199;28;20395;-52
2020/12/22 03:10:25;;;;;;;2.30;2.00;;;21.30;34.40;;;;;;4994322;28;20390;-52
2020/12/22 03:12:51;;;;;;;2.10;1.80;;;21.30;34.20;;;;;;4993291;28;20399;-52
2020/12/22 03:15:17;;;;;;;2.72;2.00;;;21.30;34.10;;;;;;5007348;28;20412;-52
2020/12/22 03:17:42;;;;;;;1.90;1.70;;;21.30;34.20;;;;;;5013418;28;20745;-52
2020/12/22 03:20:10;;;;;;;2.40;1.77;;;21.30;34.10;;;;;;4996026;28;20389;-52
2020/12/22 03:22:37;;;;;;;2.10;1.90;;;21.30;34.20;;;;;;5013817;28;20385;-51
2020/12/22 03:25:04;;;;;;;2.03;1.80;;;21.30;34.10;;;;;;5013328;28;20412;-52
2020/12/22 03:27:30;;;;;;;2.03;1.70;;;21.30;34.00;;;;;;5013414;28;20964;-52
2020/12/22 03:29:56;;;;;;;2.13;1.80;;;21.30;34.00;;;;;;5013617;28;20471;-52
2020/12/22 03:32:22;;;;;;;3.10;1.70;;;21.30;34.00;;;;;;5003316;28;20420;-51
2020/12/22 03:34:48;;;;;;;1.92;1.70;;;21.30;34.00;;;;;;4993435;28;20493;-52
2020/12/22 03:37:19;;;;;;;2.50;1.90;;;21.30;34.10;;;;;;4993541;28;20534;-52
2020/12/22 03:39:49;;;;;;;2.13;1.67;;;21.30;34.00;;;;;;4993726;28;20399;-51
2020/12/22 03:42:15;;;;;;;2.28;1.88;;;21.30;34.00;;;;;;4993810;28;20434;-52
2020/12/22 03:44:41;;;;;;;1.80;1.50;;;21.30;34.00;;;;;;5005565;28;20424;-52
2020/12/22 03:47:07;;;;;;;1.88;1.48;;;21.30;34.00;;;;;;5013018;28;20544;-52
2020/12/22 03:49:33;;;;;;;1.77;1.60;;;21.30;34.00;;;;;;5012951;28;20959;-52
2020/12/22 03:51:59;;;;;;;1.95;1.60;;;21.30;34.00;;;;;;5013291;28;20479;-52
2020/12/22 03:54:24;;;;;;;1.98;1.52;;;21.30;34.00;;;;;;5012997;28;20604;-52
2020/12/22 03:56:50;;;;;;;1.87;1.50;;;21.30;34.00;;;;;;5012943;28;20410;-52
2020/12/22 03:59:15;;;;;;;2.00;1.70;;;21.30;34.20;;;;;;5011801;28;20455;-52
2020/12/22 04:01:41;;;;;;;2.70;1.60;;;21.30;33.90;;;;;;5011961;28;20420;-52
2020/12/22 04:04:07;;;;;;;2.00;1.60;;;21.20;34.20;;;;;;5012838;28;20419;-52
2020/12/22 04:06:32;;;;;;;3.20;1.53;;;21.30;34.50;;;;;;5012968;28;20807;-52
2020/12/22 04:08:58;;;;;;;2.27;1.40;;;21.20;34.40;;;;;;5012985;28;20393;-52
2020/12/22 04:11:23;;;;;;;2.60;1.77;;;21.30;34.40;;;;;;5012225;28;20411;-54
2020/12/22 04:13:49;;;;;;;1.90;1.60;;;21.20;35.60;;;;;;5012014;28;20508;-52
2020/12/22 04:16:15;;;;;;;3.63;1.50;;;21.20;35.20;;;;;;5012194;28;20381;-52
2020/12/22 04:18:40;;;;;;;3.93;1.50;;;21.20;35.70;;;;;;5011760;28;20956;-53
2020/12/22 04:21:06;;;;;;;4.53;1.48;;;21.30;36.50;;;;;;5011407;28;20761;-53
2020/12/22 04:23:32;;;;;;;2.80;1.42;;;21.30;36.70;;;;;;5011915;28;20447;-55
2020/12/22 04:25:57;;;;;;;5.93;1.47;;;21.30;37.10;;;;;;5012298;28;20503;-52
2020/12/22 04:28:23;;;;;;;4.47;1.50;;;21.30;37.10;;;;;;5012299;28;20785;-52
2020/12/22 04:30:49;;;;;;;4.80;1.77;;;21.30;37.20;;;;;;4994972;28;20448;-52
2020/12/22 04:33:14;;;;;;;2.95;1.50;;;21.30;37.20;;;;;;4995153;28;20402;-52
2020/12/22 04:35:40;;;;;;;3.57;1.33;;;21.30;37.00;;;;;;5011181;28;20470;-54
2020/12/22 04:38:07;;;;;;;3.55;1.40;;;21.30;37.00;;;;;;5011381;28;20675;-52
2020/12/22 04:40:33;;;;;;;2.55;1.13;;;21.30;36.70;;;;;;5010332;28;20400;-52
2020/12/22 04:43:00;;;;;;;1.85;1.50;;;21.30;36.90;;;;;;5010029;28;20392;-52
2020/12/22 04:45:30;;;;;;;2.65;1.50;;;21.50;37.00;;;;;;5009227;28;20458;-52
2020/12/22 04:47:56;;;;;;;4.32;1.40;;;21.50;37.70;;;;;;5010543;28;20389;-52
2020/12/22 04:50:23;;;;;;;4.53;1.40;;;21.50;38.00;;;;;;5001040;28;20421;-52
2020/12/22 04:52:51;;;;;;;4.82;1.55;;;21.50;38.40;;;;;;5000351;28;20396;-52
2020/12/22 04:55:18;;;;;;;3.08;1.48;;;21.50;38.10;;;;;;5009147;28;20413;-52
2020/12/22 04:57:54;;;;;;;2.90;1.40;;;21.50;38.50;;;;;;5010803;28;20381;-52
2020/12/22 05:00:20;;;;;;;3.67;1.38;;;21.50;38.30;;;;;;5011857;28;20393;-51
2020/12/22 05:02:45;;;;;;;3.47;1.20;;;21.50;39.00;;;;;;5011853;28;20893;-52
2020/12/22 05:05:12;;;;;;;5.70;1.40;;;21.40;38.50;;;;;;5011121;28;20440;-51
2020/12/22 05:07:39;;;;;;;4.65;1.30;;;21.40;38.40;;;;;;5011114;28;20872;-52
2020/12/22 05:10:10;;;;;;;5.68;1.40;;;21.40;38.70;;;;;;5011387;28;20408;-52
2020/12/22 05:12:38;;;;;;;5.35;1.30;;;21.40;38.80;;;;;;5003002;28;20867;-52
2020/12/22 05:15:05;;;;;;;4.40;1.30;;;21.40;38.10;;;;;;4993619;28;20403;-52
2020/12/22 05:17:31;;;;;;;5.97;1.50;;;21.40;38.40;;;;;;5010942;28;20396;-52
2020/12/22 05:19:57;;;;;;;3.17;1.10;;;21.40;37.60;;;;;;5009972;28;20488;-52
2020/12/22 05:22:23;;;;;;;3.30;1.10;;;21.30;36.40;;;;;;5011373;28;20396;-52
2020/12/22 05:24:51;;;;;;;4.47;1.50;;;21.30;36.10;;;;;;4992541;28;20411;-52
2020/12/22 05:27:20;;;;;;;6.70;1.30;;;21.30;36.00;;;;;;4991294;28;20528;-52
2020/12/22 05:29:49;;;;;;;3.67;1.20;;;21.30;36.90;;;;;;4991480;28;20770;-52
2020/12/22 05:32:18;;;;;;;8.65;1.30;;;21.30;37.20;;;;;;4999410;28;20447;-52
2020/12/22 05:34:44;;;;;;;5.70;1.20;;;21.30;37.40;;;;;;5011359;28;20389;-52
2020/12/22 05:37:10;;;;;;;7.00;1.40;;;21.30;37.10;;;;;;5010704;28;20400;-52
2020/12/22 05:39:39;;;;;;;4.75;1.20;;;21.30;36.80;;;;;;5010969;28;20397;-52
2020/12/22 05:42:14;;;;;;;4.22;1.25;;;21.30;35.80;;;;;;5010909;28;20395;-51
2020/12/22 05:44:50;;;;;;;6.72;1.40;;;21.20;36.70;;;;;;4999691;28;20897;-52
2020/12/22 05:47:18;;;;;;;5.70;1.40;;;21.30;36.90;;;;;;5014543;28;20417;-52
2020/12/22 05:49:55;;;;;;;7.40;1.40;;;21.20;37.20;;;;;;5014791;28;20388;-52
2020/12/22 05:52:22;;;;;;;3.30;1.20;;;21.20;36.60;;;;;;5013374;28;20396;-52
2020/12/22 05:54:52;;;;;;;5.30;1.45;;;21.20;35.90;;;;;;5015486;28;20411;-52
2020/12/22 05:57:26;;;;;;;5.03;1.40;;;21.20;36.60;;;;;;5014207;28;20400;-52
2020/12/22 05:59:52;;;;;;;3.63;1.20;;;21.20;36.30;;;;;;5015196;28;20861;-52
2020/12/22 06:02:32;;;;;;;3.40;1.27;;;21.20;36.40;;;;;;4997370;28;20417;-52
2020/12/22 06:05:02;;;;;;;2.88;1.15;;;21.20;36.00;;;;;;5015228;28;20551;-52
2020/12/22 06:07:28;;;;;;;2.03;1.30;;;21.20;36.00;;;;;;5014696;28;20401;-52
2020/12/22 06:09:55;;;;;;;3.17;1.20;;;21.20;35.80;;;;;;5014887;28;20412;-52
2020/12/22 06:12:22;;;;;;;3.23;1.40;;;21.20;35.40;;;;;;5015037;28;20473;-52
2020/12/22 06:14:50;;;;;;;3.35;1.25;;;21.20;36.00;;;;;;5015009;28;21063;-52
2020/12/22 06:17:16;;;;;;;3.55;1.30;;;21.10;35.90;;;;;;5014732;28;20424;-52
2020/12/22 06:19:43;;;;;;;3.40;1.30;;;21.10;36.00;;;;;;5014672;28;20420;-52
2020/12/22 06:22:14;;;;;;;4.13;1.30;;;21.10;35.80;;;;;;5014938;28;20403;-52
2020/12/22 06:24:40;;;;;;;3.70;1.40;;;21.10;36.30;;;;;;5014411;28;20427;-52
2020/12/22 06:27:07;;;;;;;4.30;1.40;;;21.10;36.00;;;;;;5014802;28;20443;-52
2020/12/22 06:29:34;;;;;;;1.90;1.10;;;21.20;36.10;;;;;;5014224;28;20392;-52
2020/12/22 06:32:20;;;;;;;2.22;1.30;;;21.20;35.70;;;;;;5014906;28;20396;-52
2020/12/22 06:34:46;;;;;;;3.78;1.30;;;21.20;35.30;;;;;;5013748;28;20405;-52
2020/12/22 06:37:12;;;;;;;2.00;1.27;;;21.10;35.40;;;;;;4999878;28;20397;-52
2020/12/22 06:39:49;;;;;;;3.25;1.40;;;21.10;35.60;;;;;;5013186;28;20408;-52
2020/12/22 06:42:30;;;;;;;2.50;1.23;;;21.10;35.80;;;;;;5013489;28;20405;-52
2020/12/22 06:45:16;;;;;;;1.88;1.10;;;21.10;35.60;;;;;;5011516;28;20850;-52
2020/12/22 06:47:42;;;;;;;2.88;1.30;;;21.10;35.40;;;;;;5002616;28;20428;-52
2020/12/22 06:50:07;;;;;;;2.72;1.25;;;21.10;35.40;;;;;;4996811;28;20408;-52
2020/12/22 06:52:43;;;;;;;3.50;1.10;;;21.00;35.70;;;;;;5014132;28;20519;-52
2020/12/22 06:55:11;;;;;;;2.67;1.30;;;21.00;35.80;;;;;;5013271;28;20400;-52
2020/12/22 06:57:44;;;;;;;2.33;1.30;;;21.00;35.90;;;;;;5008397;28;20788;-52
2020/12/22 07:00:27;;;;;;;2.10;1.10;;;21.00;35.80;;;;;;5013375;28;20396;-52
2020/12/22 07:03:08;;;;;;;2.10;1.20;;;21.00;35.80;;;;;;5013482;28;20408;-52
2020/12/22 07:05:45;;;;;;;3.60;1.20;;;21.00;35.70;;;;;;5013152;28;20421;-52
2020/12/22 07:08:12;;;;;;;2.35;1.20;;;21.00;35.60;;;;;;5013859;28;20390;-52
2020/12/22 07:10:43;;;;;;;2.50;1.05;;;21.00;35.70;;;;;;5014019;28;20907;-52
2020/12/22 07:13:09;;;;;;;1.50;1.20;;;21.00;35.60;;;;;;5013935;28;20543;-52
2020/12/22 07:15:37;;;;;;;1.90;1.30;;;21.00;35.60;;;;;;5013476;28;20512;-52
2020/12/22 07:18:12;;;;;;;2.10;1.20;;;21.00;35.60;;;;;;5013138;28;20397;-52
2020/12/22 07:20:42;;;;;;;2.05;1.30;;;21.00;35.60;;;;;;5013751;28;20396;-52
2020/12/22 07:23:10;;;;;;;2.10;1.08;;;21.00;35.60;;;;;;5012703;28;20393;-52
2020/12/22 07:25:36;;;;;;;1.73;1.10;;;21.00;35.60;;;;;;5013007;28;20866;-52
2020/12/22 07:28:07;;;;;;;2.10;1.10;;;21.00;35.50;;;;;;5013719;28;20396;-52
2020/12/22 07:30:33;;;;;;;2.20;1.13;;;20.90;35.50;;;;;;5013681;28;20420;-52
2020/12/22 07:33:00;;;;;;;2.03;1.00;;;20.90;35.50;;;;;;5012815;28;20877;-52
2020/12/22 07:35:27;;;;;;;2.00;1.33;;;21.00;35.60;;;;;;5013653;28;20455;-52
2020/12/22 07:38:00;;;;;;;2.38;1.30;;;21.00;35.80;;;;;;5016633;28;20443;-52
2020/12/22 07:40:26;;;;;;;3.03;1.17;;;21.10;35.70;;;;;;5031976;28;20487;-60
2020/12/22 07:43:05;;;;;;;3.28;1.25;;;21.00;35.40;;;;;;5033302;28;20388;-52
2020/12/22 07:45:31;;;;;;;3.88;1.17;;;21.00;35.50;;;;;;5032619;28;20407;-53
2020/12/22 07:47:56;;;;;;;3.35;1.45;;;21.00;35.40;;;;;;5033149;28;20398;-52
2020/12/22 07:50:22;;;;;;;4.07;1.30;;;21.00;35.30;;;;;;5033023;28;20474;-52
2020/12/22 07:52:59;;;;;;;3.38;1.30;;;21.00;35.40;;;;;;5032937;28;20773;-52
2020/12/22 07:55:25;;;;;;;2.60;1.30;;;21.00;35.40;;;;;;5015070;28;20405;-52
2020/12/22 07:57:52;;;;;;;3.25;1.20;;;21.00;35.40;;;;;;5032496;28;20465;-52
2020/12/22 08:00:20;;;;;;;3.75;1.20;;;21.00;35.40;;;;;;5032789;28;20789;-52
2020/12/22 08:02:46;;;;;;;4.00;1.40;;;20.90;35.50;;;;;;5032661;28;20407;-52
2020/12/22 08:05:13;;;;;;;3.17;1.30;;;21.00;35.80;;;;;;5032660;28;20430;-52
2020/12/22 08:07:42;;;;;;;3.37;1.20;;;20.90;35.80;;;;;;5031282;28;20464;-52
2020/12/22 08:10:15;;;;;;;4.78;1.30;;;20.90;35.70;;;;;;5032594;28;20412;-52
2020/12/22 08:12:42;;;;;;;2.60;1.30;;;20.90;35.80;;;;;;5032803;28;20478;-52
2020/12/22 08:15:10;;;;;;;3.97;1.20;;;20.90;35.80;;;;;;5032535;28;20434;-52
2020/12/22 08:17:39;;;;;;;3.83;1.10;;;20.90;36.00;;;;;;5032073;28;20398;-52
2020/12/22 08:20:06;;;;;;;2.42;1.10;;;20.90;36.00;;;;;;5032475;28;20434;-52
2020/12/22 08:22:32;;;;;;;1.95;1.10;;;20.90;36.00;;;;;;5032396;28;20402;-52
2020/12/22 08:25:01;;;;;;;3.30;1.23;;;20.90;36.00;;;;;;5014678;28;20433;-52
2020/12/22 08:27:29;;;;;;;2.35;1.00;;;20.80;36.00;;;;;;5032188;28;20410;-52
2020/12/22 08:29:54;;;;;;;3.33;1.10;;;20.90;35.90;;;;;;5032321;28;20390;-52
2020/12/22 08:32:24;;;;;;;1.93;1.10;;;20.90;35.60;;;;;;5031405;28;20395;-52
2020/12/22 08:34:52;;;;;;;1.92;1.10;;;20.90;35.80;;;;;;5031703;28;20387;-52
2020/12/22 08:37:26;;;;;;;2.70;1.13;;;20.90;36.40;;;;;;5030853;28;20470;-52
2020/12/22 08:39:52;;;;;;;2.70;1.23;;;20.90;36.30;;;;;;5031911;28;20387;-52
2020/12/22 08:42:19;;;;;;;2.63;1.40;;;21.00;35.70;;;;;;5031791;28;20522;-57
2020/12/22 08:44:50;;;;;;;2.53;1.33;;;21.00;36.80;;;;;;4980510;28;20414;-52
2020/12/22 08:47:17;;;;;;;2.83;1.27;;;21.00;37.20;;;;;;4992961;28;20398;-52
2020/12/22 08:49:42;;;;;;;3.90;1.40;;;21.10;37.40;;;;;;4992506;28;20387;-60
2020/12/22 08:52:15;;;;;;;3.63;1.10;;;21.10;37.40;;;;;;5001358;28;20400;-52
2020/12/22 08:54:45;;;;;;;3.08;1.15;;;21.10;37.40;;;;;;5002441;28;20403;-52
2020/12/22 08:57:13;;;;;;;1.80;1.10;;;21.10;37.50;;;;;;5011042;28;20397;-52
2020/12/22 08:59:39;;;;;;;2.95;1.20;;;21.10;37.20;;;;;;5010920;28;20479;-52
2020/12/22 09:02:05;;;;;;;3.47;1.27;;;21.00;36.20;;;;;;5011077;28;21139;-52
2020/12/22 09:04:33;;;;;;;5.00;1.33;;;21.00;36.70;;;;;;5008428;28;20920;-52
2020/12/22 09:07:00;;;;;;;3.40;1.20;;;21.00;36.20;;;;;;5010902;28;20453;-52
2020/12/22 09:09:32;;;;;;;2.55;1.00;;;21.00;36.30;;;;;;5011680;28;20395;-52
2020/12/22 09:12:11;;;;;;;2.78;1.10;;;21.00;35.90;;;;;;5011336;28;20407;-52
2020/12/22 09:14:45;;;;;;;3.00;1.10;;;21.00;35.90;;;;;;5011775;28;20962;-52
2020/12/22 09:17:25;;;;;;;3.00;1.30;;;20.90;35.90;;;;;;4993771;28;20401;-52
2020/12/22 09:19:51;;;;;;;2.38;1.15;;;20.90;35.90;;;;;;5010642;28;20475;-52
2020/12/22 09:22:22;;;;;;;2.00;1.25;;;20.90;36.00;;;;;;5011638;28;20401;-51
2020/12/22 09:24:59;;;;;;;2.60;1.50;;;20.90;36.00;;;;;;4993881;28;20412;-52
2020/12/22 09:27:30;;;;;;;1.98;1.10;;;20.90;36.00;;;;;;5011060;28;20407;-52
2020/12/22 09:29:56;;;;;;;2.70;1.40;;;20.90;35.90;;;;;;5010351;28;20396;-52
2020/12/22 09:32:22;;;;;;;3.00;1.40;;;20.90;36.00;;;;;;5011117;28;20447;-52
2020/12/22 09:34:48;;;;;;;2.33;1.27;;;20.90;36.20;;;;;;5011633;28;20384;-52
2020/12/22 09:37:13;;;;;;;2.17;1.20;;;20.90;36.20;;;;;;5011519;28;20778;-52
2020/12/22 09:39:40;;;;;;;2.83;1.30;;;20.90;36.10;;;;;;5011112;28;20943;-56
2020/12/22 09:42:06;;;;;;;2.10;1.20;;;20.90;36.00;;;;;;5011610;28;20396;-52
2020/12/22 09:44:34;;;;;;;2.53;1.20;;;20.80;35.90;;;;;;5011432;28;20451;-52
2020/12/22 09:46:59;;;;;;;2.03;1.27;;;20.70;36.20;;;;;;5011475;28;20429;-52
2020/12/22 09:49:26;;;;;;;2.65;1.40;;;20.70;36.10;;;;;;5011378;28;20424;-55
2020/12/22 09:51:52;;;;;;;1.60;1.20;;;20.70;36.00;;;;;;4993956;28;20393;-52
2020/12/22 09:54:20;;;;;;;3.40;1.50;;;20.70;36.30;;;;;;4993911;28;20392;-52
2020/12/22 09:56:46;;;;;;;2.60;1.40;;;20.70;36.20;;;;;;5011542;28;20393;-52
2020/12/22 09:59:12;;;;;;;2.10;1.13;;;20.60;36.20;;;;;;5011429;28;20385;-55
2020/12/22 10:01:38;;;;;;;2.03;1.40;;;20.60;36.30;;;;;;5010692;28;20490;-52
2020/12/22 10:04:04;;;;;;;1.30;1.10;;;20.60;36.20;;;;;;5011424;28;20384;-52
2020/12/22 10:06:30;;;;;;;2.05;1.33;;;20.60;36.40;;;;;;5011104;28;20424;-52
2020/12/22 10:08:56;;;;;;;2.17;1.30;;;20.60;36.30;;;;;;5011386;28;20384;-52
2020/12/22 10:11:22;;;;;;;2.45;1.42;;;20.60;36.40;;;;;;5011197;28;20400;-53
2020/12/22 10:13:49;;;;;;;2.33;1.30;;;20.70;36.00;;;;;;5011068;28;20384;-52
2020/12/22 10:16:19;;;;;;;2.22;1.30;;;20.70;36.00;;;;;;5011278;28;20389;-52
2020/12/22 10:18:44;;;;;;;2.03;1.40;;;20.80;36.00;;;;;;5011189;28;20411;-51
2020/12/22 10:21:12;;;;;;;2.00;1.20;;;20.80;35.90;;;;;;5011183;28;20397;-52
2020/12/22 10:23:39;;;;;;;2.08;1.17;;;20.80;35.90;;;;;;5010733;28;20397;-52
2020/12/22 10:26:06;;;;;;;1.80;1.10;;;20.70;35.80;;;;;;5011023;28;20440;-52
2020/12/22 10:28:34;;;;;;;1.73;1.10;;;20.80;35.90;;;;;;5011195;28;20415;-52
2020/12/22 10:31:00;;;;;;;1.90;1.30;;;20.80;35.90;;;;;;5012373;28;20393;-52
2020/12/22 10:33:26;;;;;;;1.90;1.30;;;20.70;35.90;;;;;;5014742;28;20447;-52
2020/12/22 10:35:52;;;;;;;2.08;1.10;;;20.80;36.00;;;;;;5014498;28;20405;-52
2020/12/22 10:38:19;;;;;;;2.33;1.20;;;20.80;35.90;;;;;;5014497;28;20403;-52
2020/12/22 10:40:44;;;;;;;1.98;1.13;;;20.80;35.90;;;;;;5014595;28;20392;-52
2020/12/22 10:43:10;;;;;;;1.60;1.03;;;20.80;35.90;;;;;;5014560;28;20393;-52
2020/12/22 10:45:36;;;;;;;1.85;1.20;;;20.80;35.90;;;;;;5013996;28;20423;-52
2020/12/22 10:48:03;;;;;;;2.33;1.13;;;20.80;35.90;;;;;;5014377;28;20444;-52
2020/12/22 10:50:29;;;;;;;1.85;1.02;;;20.80;35.90;;;;;;5014388;28;20420;-52
2020/12/22 10:52:55;;;;;;;1.70;1.20;;;20.80;35.90;;;;;;5014271;28;20389;-52
2020/12/22 10:55:21;;;;;;;1.93;1.20;;;20.80;35.90;;;;;;5014219;28;20727;-52
2020/12/22 10:57:47;;;;;;;1.92;1.20;;;20.80;35.90;;;;;;5013786;28;20392;-52
2020/12/22 11:00:13;;;;;;;1.52;1.15;;;20.80;35.90;;;;;;5014142;28;20397;-52
2020/12/22 11:02:40;;;;;;;2.50;1.20;;;20.80;35.90;;;;;;5014283;28;20420;-52
2020/12/22 11:05:05;;;;;;;1.88;1.20;;;20.80;35.90;;;;;;5013929;28;20423;-52
2020/12/22 11:09:59;;;;;;;2.25;1.10;;;20.80;35.80;;;;;;5013791;28;20396;-52
2020/12/22 11:12:25;;;;;;;3.30;1.33;;;20.80;35.80;;;;;;5013829;28;20397;-52
2020/12/22 11:14:51;;;;;;;2.53;1.20;;;20.80;35.80;;;;;;5014193;28;20420;-52
2020/12/22 11:17:17;;;;;;;4.70;1.85;;;20.80;35.80;;;;;;5013794;28;20443;-52
2020/12/22 11:19:42;;;;;;;5.20;1.57;;;20.80;35.90;;;;;;5013423;28;20389;-52
2020/12/22 11:22:08;;;;;;;5.73;1.90;;;20.80;35.90;;;;;;5013733;28;20401;-52
2020/12/22 11:24:33;;;;;;;5.25;1.77;;;20.80;35.90;;;;;;5013609;28;20451;-52
2020/12/22 11:26:59;;;;;;;7.77;1.93;;;20.80;36.00;;;;;;5013828;28;20400;-51
2020/12/22 11:29:25;;;;;;;3.63;1.73;;;20.80;36.10;;;;;;5013631;28;20393;-52
2020/12/22 11:31:51;;;;;;;3.70;1.70;;;20.80;36.00;;;;;;5013383;28;20534;-52
2020/12/22 11:34:18;;;;;;;4.15;1.73;;;20.70;36.00;;;;;;5012799;28;20467;-52
2020/12/22 11:36:52;;;;;;;3.57;1.70;;;20.70;36.30;;;;;;5013048;28;20531;-52
2020/12/22 11:39:18;;;;;;;4.38;1.70;;;20.70;36.50;;;;;;5012856;28;20488;-54
2020/12/22 11:41:44;;;;;;;3.53;1.60;;;20.80;36.60;;;;;;4994090;28;20905;-51
2020/12/22 11:44:11;;;;;;;4.00;1.53;;;20.80;37.50;;;;;;5012224;28;20397;-52
2020/12/22 11:46:37;;;;;;;3.95;1.70;;;20.80;38.00;;;;;;5012962;28;20443;-52
2020/12/22 11:49:05;;;;;;;3.70;1.50;;;20.80;37.90;;;;;;5012619;28;20403;-52
2020/12/22 11:51:32;;;;;;;3.78;1.30;;;20.90;37.80;;;;;;5012628;28;20408;-52
2020/12/22 11:53:58;;;;;;;3.33;1.50;;;20.80;37.10;;;;;;5012688;28;20389;-52
2020/12/22 11:56:23;;;;;;;3.57;1.80;;;20.80;37.50;;;;;;5013129;28;20852;-52
2020/12/22 11:58:49;;;;;;;3.22;1.60;;;20.90;37.80;;;;;;4995219;28;20723;-53
2020/12/22 12:01:15;;;;;;;4.10;1.50;;;20.90;38.00;;;;;;5012961;28;20927;-52
2020/12/22 12:03:43;;;;;;;4.72;1.38;;;20.90;37.50;;;;;;5012581;28;20456;-52
2020/12/22 12:06:09;;;;;;;2.70;1.50;;;20.90;37.70;;;;;;5012832;28;20507;-52
2020/12/22 12:08:35;;;;;;;6.63;1.60;;;20.90;37.30;;;;;;5012896;28;20391;-52
2020/12/22 12:11:01;;;;;;;12.67;3.23;;;20.80;37.60;;;;;;5012953;28;20401;-52
2020/12/22 12:13:26;;;;;;;14.00;4.03;;;20.80;37.10;;;;;;5012649;28;20388;-52
2020/12/22 12:15:52;;;;;;;10.70;3.27;;;20.80;37.70;;;;;;5011925;28;20389;-53
2020/12/22 12:18:18;;;;;;;12.77;3.53;;;20.80;37.70;;;;;;5011584;28;21070;-52
2020/12/22 12:20:43;;;;;;;14.63;3.40;;;20.80;37.70;;;;;;5012452;28;20416;-52
2020/12/22 12:23:09;;;;;;;15.07;3.28;;;20.80;37.70;;;;;;5012355;28;20397;-52
2020/12/22 12:25:35;;;;;;;8.30;2.90;;;20.80;37.60;;;;;;5011863;28;20424;-52
2020/12/22 12:28:00;;;;;;;10.70;2.53;;;20.70;37.30;;;;;;5011960;28;21008;-56
2020/12/22 12:30:26;;;;;;;6.40;2.83;;;20.80;37.10;;;;;;5012235;28;20393;-57
2020/12/22 12:32:51;;;;;;;7.30;2.40;;;20.80;37.00;;;;;;5012386;28;20853;-52
2020/12/22 12:35:17;;;;;;;7.77;2.60;;;20.80;36.90;;;;;;5012554;28;20761;-52
2020/12/22 12:37:43;;;;;;;7.00;2.30;;;20.80;36.90;;;;;;5012056;28;20384;-52
2020/12/22 12:40:08;;;;;;;6.23;2.10;;;20.80;36.90;;;;;;5012317;28;20898;-52
2020/12/22 12:42:34;;;;;;;6.90;2.20;;;20.70;36.80;;;;;;5012418;28;20381;-52
2020/12/22 12:45:00;;;;;;;4.80;2.20;;;20.70;36.80;;;;;;5012203;28;20797;-52
2020/12/22 12:47:25;;;;;;;5.70;2.10;;;20.70;36.70;;;;;;5012175;28;20428;-52